Terminal Aerodrome Forecast
Issued by NWS

Current Version | Previous Version | Graphics & Text | Print | Product List | Glossary On
Versions: 1 2 3 4 5 6 7 8 9 10 11 12 13 14 15 16 17
000
FTUS41 KPBZ 182300
TAFMGW
TAF
KMGW 182328Z 1900/1924 26005KT 4SM -SN OVC015
     FM190600 27004KT P6SM OVC015
     FM192100 29003KT P6SM OVC025=

USA.gov is the U.S. government's official web portal to all federal, state and local government web resources and services.